Time;durP1;ratioP1;P1;durP2;ratioP2;P2;SDS_P1;SDS_P2;PMS_P1;PMS_P2;Temp;Humidity;BMP_temperature;BMP_pressure;BME280_temperature;BME280_humidity;BME280_pressure;Samples;Min_cycle;Max_cycle;Signal;HPM_P1;HPM_P2
2022/03/30 00:00:06;;;;;;;63.00;37.70;;;;;;;4.07;100.00;98663.47;4938035;29;20031;-77
2022/03/30 00:02:31;;;;;;;59.10;37.45;;;;;;;4.04;100.00;98655.00;4937906;29;20365;-77
2022/03/30 00:04:57;;;;;;;54.95;36.45;;;;;;;3.96;100.00;98658.72;4936280;29;20032;-76
2022/03/30 00:07:22;;;;;;;61.78;37.92;;;;;;;3.92;100.00;98644.25;4938081;29;20032;-76
2022/03/30 00:09:48;;;;;;;57.83;36.80;;;;;;;3.95;100.00;98658.75;4937681;29;20050;-77
2022/03/30 00:12:13;;;;;;;59.13;37.13;;;;;;;3.87;100.00;98646.13;4937906;29;20043;-76
2022/03/30 00:14:39;;;;;;;62.55;40.03;;;;;;;3.82;100.00;98642.03;4937827;29;20035;-76
2022/03/30 00:17:05;;;;;;;60.13;38.78;;;;;;;3.86;100.00;98654.75;4936244;29;20515;-76
2022/03/30 00:19:31;;;;;;;56.72;34.42;;;;;;;3.85;100.00;98654.81;4936293;29;20048;-76
2022/03/30 00:21:57;;;;;;;58.50;37.75;;;;;;;3.73;100.00;98636.31;4937574;29;20039;-76
2022/03/30 00:24:23;;;;;;;57.35;36.15;;;;;;;3.71;100.00;98647.59;4937719;29;20035;-76
2022/03/30 00:26:49;;;;;;;57.42;36.03;;;;;;;3.72;100.00;98657.81;4937459;29;20023;-77
2022/03/30 00:29:14;;;;;;;61.17;36.53;;;;;;;3.72;100.00;98651.84;4937311;29;20039;-77
2022/03/30 00:31:40;;;;;;;64.95;38.70;;;;;;;3.61;100.00;98641.06;4937435;29;20071;-77
2022/03/30 00:34:05;;;;;;;65.80;39.80;;;;;;;3.57;100.00;98647.19;4937367;29;20027;-76
2022/03/30 00:36:30;;;;;;;75.07;39.75;;;;;;;3.54;100.00;98645.59;4937467;29;20027;-76
2022/03/30 00:38:56;;;;;;;62.97;37.83;;;;;;;3.58;100.00;98654.03;4937352;29;20027;-76
2022/03/30 00:41:21;;;;;;;65.82;38.95;;;;;;;3.50;100.00;98647.44;4937314;29;20028;-76
2022/03/30 00:43:47;;;;;;;67.22;40.83;;;;;;;3.44;100.00;98645.03;4937109;29;20027;-77
2022/03/30 00:46:13;;;;;;;72.00;42.92;;;;;;;3.45;100.00;98651.88;4937217;29;20468;-76
2022/03/30 00:48:40;;;;;;;72.60;40.13;;;;;;;3.40;100.00;98642.63;4934760;29;20034;-76
2022/03/30 00:51:05;;;;;;;63.45;38.20;;;;;;;3.46;100.00;98651.00;4936924;29;20087;-76
2022/03/30 00:53:31;;;;;;;70.05;42.22;;;;;;;3.39;100.00;98636.66;4937274;29;20036;-76
2022/03/30 00:55:57;;;;;;;62.42;39.83;;;;;;;3.37;100.00;98635.00;4936878;29;20086;-77
2022/03/30 00:58:25;;;;;;;63.20;40.55;;;;;;;3.32;100.00;98624.88;4936909;29;20066;-76
2022/03/30 01:00:50;;;;;;;65.75;40.67;;;;;;;3.45;100.00;98644.16;4936750;29;20588;-76
2022/03/30 01:03:16;;;;;;;69.18;41.55;;;;;;;3.41;100.00;98634.88;4936716;29;20024;-76
2022/03/30 01:05:42;;;;;;;66.45;41.05;;;;;;;3.39;100.00;98631.50;4937035;29;20032;-77
2022/03/30 01:08:07;;;;;;;71.13;43.40;;;;;;;3.35;100.00;98623.94;4936855;29;20066;-77
2022/03/30 01:10:33;;;;;;;70.97;43.63;;;;;;;3.19;100.00;98601.28;4936793;29;20075;-76
2022/03/30 01:13:02;;;;;;;67.22;41.33;;;;;;;3.25;100.00;98620.84;4936610;29;20075;-77
2022/03/30 01:15:27;;;;;;;73.65;43.72;;;;;;;3.31;100.00;98632.66;4936695;29;20048;-77
2022/03/30 01:17:52;;;;;;;80.70;46.78;;;;;;;3.21;100.00;98625.25;4936441;29;20035;-77
2022/03/30 01:20:21;;;;;;;71.38;43.25;;;;;;;3.06;100.00;98610.28;4936780;29;20098;-77
2022/03/30 01:22:47;;;;;;;75.82;44.38;;;;;;;3.09;100.00;98611.94;4936435;29;20468;-77
2022/03/30 01:25:12;;;;;;;82.65;45.40;;;;;;;2.97;100.00;98606.28;4936572;29;20036;-76
2022/03/30 01:27:38;;;;;;;76.90;42.92;;;;;;;2.99;100.00;98621.66;4936548;29;20023;-76
2022/03/30 01:33:02;;;;;;;72.50;44.05;;;;;;;2.86;100.00;98610.94;4936381;29;20083;-76
2022/03/30 01:35:28;;;;;;;82.03;46.08;;;;;;;2.91;100.00;98627.09;4936385;29;20114;-76
2022/03/30 01:37:53;;;;;;;76.00;44.53;;;;;;;2.83;100.00;98618.78;4936079;29;20055;-76
2022/03/30 01:40:19;;;;;;;68.93;43.33;;;;;;;2.71;100.00;98601.16;4936272;29;20046;-76
2022/03/30 01:42:44;;;;;;;77.95;43.85;;;;;;;2.77;100.00;98611.22;4935991;29;20088;-76
2022/03/30 01:45:12;;;;;;;77.28;44.97;;;;;;;2.72;100.00;98611.38;4936337;29;20047;-76
2022/03/30 01:47:40;;;;;;;79.75;46.13;;;;;;;2.70;100.00;98608.03;4934772;29;20027;-76
2022/03/30 01:50:08;;;;;;;86.53;46.30;;;;;;;2.54;100.00;98598.28;4935817;29;20457;-76
2022/03/30 01:52:33;;;;;;;82.22;46.17;;;;;;;2.57;100.00;98600.72;4935942;29;20082;-76
2022/03/30 01:54:58;;;;;;;75.65;42.75;;;;;;;2.47;100.00;98590.72;4935880;29;20035;-76
2022/03/30 01:57:24;;;;;;;71.75;41.80;;;;;;;2.54;100.00;98604.25;4935853;29;20031;-76
2022/03/30 01:59:49;;;;;;;73.88;40.72;;;;;;;2.38;100.00;98577.34;4935462;29;20066;-76
2022/03/30 02:02:15;;;;;;;74.13;41.17;;;;;;;2.43;100.00;98594.28;4935826;29;20114;-77
2022/03/30 02:04:41;;;;;;;71.30;44.38;;;;;;;2.35;100.00;98596.25;4935671;29;20424;-77
2022/03/30 02:07:09;;;;;;;85.35;46.42;;;;;;;2.23;100.00;98578.63;4935553;29;20024;-77
2022/03/30 02:09:35;;;;;;;95.00;48.60;;;;;;;2.23;100.00;98588.91;4935613;29;20034;-76
2022/03/30 02:12:01;;;;;;;100.45;52.30;;;;;;;2.20;100.00;98589.84;4935413;29;20500;-76
2022/03/30 02:14:27;;;;;;;102.80;53.78;;;;;;;2.20;100.00;98591.59;4935712;29;20106;-76
2022/03/30 02:16:53;;;;;;;114.70;56.58;;;;;;;2.11;100.00;98579.03;4935406;29;20081;-76
2022/03/30 02:19:18;;;;;;;111.85;55.58;;;;;;;2.11;100.00;98589.28;4935593;29;20472;-76
2022/03/30 02:21:44;;;;;;;109.95;56.55;;;;;;;2.04;100.00;98583.47;4935749;29;20023;-76
2022/03/30 02:24:09;;;;;;;118.05;59.97;;;;;;;2.00;100.00;98592.16;4935225;29;20028;-76
2022/03/30 02:26:35;;;;;;;119.03;59.03;;;;;;;1.94;100.00;98585.47;4935308;29;20023;-76
2022/03/30 02:29:00;;;;;;;146.77;69.63;;;;;;;1.94;100.00;98582.91;4933917;29;20032;-76
2022/03/30 02:31:26;;;;;;;143.02;68.97;;;;;;;1.83;100.00;98566.13;4935404;29;20038;-76
2022/03/30 02:33:51;;;;;;;136.07;64.53;;;;;;;1.87;100.00;98572.88;4935130;29;20078;-76
2022/03/30 02:36:17;;;;;;;142.75;65.25;;;;;;;1.88;100.00;98577.94;4935193;29;20036;-76
2022/03/30 02:38:44;;;;;;;130.20;63.92;;;;;;;1.83;100.00;98564.41;4935220;29;20035;-76
2022/03/30 02:41:10;;;;;;;123.57;62.40;;;;;;;1.77;100.00;98562.03;4934848;29;20027;-77
2022/03/30 02:43:36;;;;;;;131.13;62.45;;;;;;;1.85;100.00;98572.88;4935262;29;20368;-76
2022/03/30 02:46:03;;;;;;;127.82;63.90;;;;;;;1.83;100.00;98574.66;4935257;29;20039;-77
2022/03/30 02:48:28;;;;;;;116.03;58.08;;;;;;;1.75;100.00;98566.34;4935329;29;20059;-76
2022/03/30 02:50:56;;;;;;;128.10;61.40;;;;;;;1.70;100.00;98563.06;4933553;29;20432;-76
2022/03/30 02:53:23;;;;;;;125.20;62.00;;;;;;;1.69;100.00;98561.41;4934939;29;20111;-76
2022/03/30 02:55:49;;;;;;;121.65;61.47;;;;;;;1.72;100.00;98574.97;4934827;29;20567;-76
2022/03/30 02:58:14;;;;;;;123.13;61.45;;;;;;;1.63;100.00;98564.97;4935107;29;20111;-76
2022/03/30 03:00:41;;;;;;;118.45;60.97;;;;;;;1.66;100.00;98577.72;4935034;29;20447;-76
2022/03/30 03:03:10;;;;;;;123.68;60.42;;;;;;;1.58;100.00;98566.81;4934680;29;20091;-77
2022/03/30 03:05:37;;;;;;;110.85;56.05;;;;;;;1.59;100.00;98576.19;4934993;29;20118;-76
2022/03/30 03:08:04;;;;;;;88.35;47.42;;;;;;;1.56;100.00;98576.28;4934710;29;20032;-76
2022/03/30 03:10:31;;;;;;;87.13;45.33;;;;;;;1.55;100.00;98574.59;4934647;29;20031;-76
2022/03/30 03:12:56;;;;;;;90.90;48.17;;;;;;;1.48;100.00;98580.78;4933985;29;20046;-76
2022/03/30 03:15:23;;;;;;;84.32;45.85;;;;;;;1.43;100.00;98575.78;4934779;29;20052;-76
2022/03/30 03:17:50;;;;;;;85.22;47.97;;;;;;;1.35;100.00;98570.03;4934823;29;20504;-76
2022/03/30 03:20:15;;;;;;;83.53;44.72;;;;;;;1.39;100.00;98568.19;4934977;29;20480;-76
2022/03/30 03:22:41;;;;;;;92.18;49.28;;;;;;;1.37;100.00;98564.84;4934515;29;20023;-76
2022/03/30 03:25:08;;;;;;;90.88;48.25;;;;;;;1.40;100.00;98568.16;4934290;29;20055;-77
2022/03/30 03:27:34;;;;;;;92.13;49.35;;;;;;;1.36;100.00;98570.84;4934597;29;20392;-77
2022/03/30 03:30:00;;;;;;;99.43;49.08;;;;;;;1.31;100.00;98567.59;4934415;29;20035;-77
2022/03/30 03:32:25;;;;;;;87.90;46.00;;;;;;;1.25;100.00;98560.88;4934966;29;20075;-77
2022/03/30 03:34:52;;;;;;;88.10;46.30;;;;;;;1.21;100.00;98557.53;4934630;29;20043;-77
2022/03/30 03:37:18;;;;;;;84.25;45.78;;;;;;;1.23;100.00;98563.47;4934442;29;20032;-77
2022/03/30 03:39:44;;;;;;;75.57;42.13;;;;;;;1.22;100.00;98561.81;4934675;29;20039;-76
2022/03/30 03:42:10;;;;;;;76.22;42.10;;;;;;;1.21;100.00;98561.81;4934428;29;20366;-77
2022/03/30 03:44:35;;;;;;;67.82;40.40;;;;;;;1.17;100.00;98560.22;4934563;29;20091;-76
2022/03/30 03:47:02;;;;;;;69.78;40.05;;;;;;;1.12;100.00;98556.94;4934308;29;20373;-76
2022/03/30 03:49:27;;;;;;;73.68;42.00;;;;;;;1.10;100.00;98572.38;4934224;29;20036;-76
2022/03/30 03:51:53;;;;;;;76.88;43.42;;;;;;;1.02;100.00;98558.91;4934090;29;20020;-76
2022/03/30 03:54:18;;;;;;;82.38;46.92;;;;;;;1.05;100.00;98563.94;4934599;29;20480;-76
2022/03/30 03:56:44;;;;;;;77.72;44.42;;;;;;;0.90;100.00;98546.41;4934308;29;20032;-76
2022/03/30 03:59:10;;;;;;;77.78;43.50;;;;;;;1.02;100.00;98568.34;4934478;29;20095;-76
2022/03/30 04:01:36;;;;;;;72.53;42.15;;;;;;;0.99;100.00;98562.38;4934334;29;20036;-76
2022/03/30 04:04:02;;;;;;;78.05;41.70;;;;;;;0.83;100.00;98532.88;4932824;29;20095;-77
2022/03/30 04:06:29;;;;;;;77.45;43.80;;;;;;;0.91;100.00;98546.34;4934176;29;20034;-76
2022/03/30 04:08:54;;;;;;;82.05;47.75;;;;;;;0.96;100.00;98562.44;4933848;29;20519;-76
2022/03/30 04:11:20;;;;;;;78.03;45.67;;;;;;;0.92;100.00;98565.13;4934162;29;20178;-76
2022/03/30 04:13:45;;;;;;;80.18;43.10;;;;;;;0.80;100.00;98537.25;4934135;29;20063;-77
2022/03/30 04:16:10;;;;;;;73.93;41.40;;;;;;;0.93;100.00;98554.84;4933822;29;20087;-76
2022/03/30 04:18:36;;;;;;;69.80;40.50;;;;;;;0.86;100.00;98544.78;4934298;29;20039;-76
2022/03/30 04:21:01;;;;;;;73.68;40.78;;;;;;;0.86;100.00;98539.66;4933984;29;20417;-76
2022/03/30 04:23:26;;;;;;;74.90;41.22;;;;;;;0.95;100.00;98555.66;4935067;29;20031;-76
2022/03/30 04:25:52;;;;;;;77.32;41.17;;;;;;;0.96;100.00;98553.91;4937769;29;20027;-77
2022/03/30 04:28:17;;;;;;;76.10;41.50;;;;;;;0.97;100.00;98556.47;4937732;29;20457;-76
2022/03/30 04:30:44;;;;;;;67.05;39.30;;;;;;;0.93;100.00;98552.28;4937511;29;20023;-76
2022/03/30 04:33:10;;;;;;;72.20;40.67;;;;;;;0.91;100.00;98545.50;4937096;29;20482;-76
2022/03/30 04:35:36;;;;;;;68.97;40.22;;;;;;;1.01;100.00;98554.63;4937388;29;20107;-76
2022/03/30 04:38:03;;;;;;;73.05;41.40;;;;;;;1.03;100.00;98555.47;4937422;29;20107;-76
2022/03/30 04:40:28;;;;;;;68.20;37.97;;;;;;;1.05;100.00;98550.28;4937449;29;20031;-76
2022/03/30 04:42:55;;;;;;;62.60;38.80;;;;;;;1.12;100.00;98556.94;4937440;29;20028;-76
2022/03/30 04:45:21;;;;;;;72.10;37.65;;;;;;;1.14;100.00;98552.63;4937630;29;20070;-76
2022/03/30 04:47:48;;;;;;;65.13;37.95;;;;;;;1.27;100.00;98558.28;4937210;29;20400;-76
2022/03/30 04:50:14;;;;;;;68.47;36.92;;;;;;;1.23;100.00;98545.53;4936782;29;20020;-76
2022/03/30 04:52:41;;;;;;;68.40;40.28;;;;;;;1.44;100.00;98553.53;4937315;29;20392;-76
2022/03/30 04:55:08;;;;;;;71.95;40.67;;;;;;;1.53;100.00;98555.00;4937089;29;20476;-77
2022/03/30 04:57:34;;;;;;;63.67;37.38;;;;;;;1.53;100.00;98540.44;4937220;29;20059;-76
2022/03/30 05:00:00;;;;;;;62.25;37.55;;;;;;;1.64;100.00;98551.22;4937142;29;20067;-76
2022/03/30 05:02:26;;;;;;;61.38;36.15;;;;;;;1.80;100.00;98555.94;4936832;29;20035;-76
2022/03/30 05:04:52;;;;;;;60.65;35.80;;;;;;;1.91;100.00;98564.19;4936835;29;20102;-76
2022/03/30 05:07:18;;;;;;;62.72;37.75;;;;;;;2.02;100.00;98566.41;4937096;29;20075;-76
2022/03/30 05:09:44;;;;;;;64.13;37.67;;;;;;;2.02;100.00;98546.72;4936937;29;20035;-76
2022/03/30 05:12:10;;;;;;;65.60;40.83;;;;;;;2.09;100.00;98549.97;4936695;29;20040;-76
2022/03/30 05:14:35;;;;;;;68.88;41.05;;;;;;;2.18;100.00;98544.53;4936799;29;20020;-77
2022/03/30 05:17:01;;;;;;;69.03;44.10;;;;;;;2.37;100.00;98566.22;4936240;29;20052;-77
2022/03/30 05:19:27;;;;;;;78.93;47.08;;;;;;;2.37;100.00;98555.09;4936577;29;20023;-76
2022/03/30 05:21:52;;;;;;;103.75;61.22;;;;;;;2.50;100.00;98570.09;4937068;29;20046;-76
2022/03/30 05:24:18;;;;;;;101.05;58.28;;;;;;;2.44;100.00;98551.44;4936496;29;20032;-76
2022/03/30 05:26:43;;;;;;;94.80;56.67;;;;;;;2.59;100.00;98553.53;4936619;29;20504;-76
2022/03/30 05:29:09;;;;;;;104.43;61.47;;;;;;;2.69;100.00;98557.47;4936334;29;20059;-76
2022/03/30 05:31:34;;;;;;;76.85;44.42;;;;;;;2.99;100.00;98565.94;4936580;29;20035;-76
2022/03/30 05:34:00;;;;;;;67.25;43.22;;;;;;;3.11;100.00;98556.13;4936095;29;20020;-76
2022/03/30 05:36:25;;;;;;;63.30;37.60;;;;;;;3.23;100.00;98558.28;4934413;29;20036;-76
2022/03/30 05:38:51;;;;;;;61.20;35.20;;;;;;;3.31;100.00;98535.69;4936191;29;20024;-76
2022/03/30 05:41:17;;;;;;;51.03;30.05;;;;;;;3.60;100.00;98555.25;4936136;29;20086;-76
2022/03/30 05:43:43;;;;;;;52.28;31.25;;;;;;;3.80;100.00;98551.97;4936163;29;20514;-76
2022/03/30 05:46:09;;;;;;;53.70;33.25;;;;;;;3.92;100.00;98548.94;4936231;29;20032;-76
2022/03/30 05:48:34;;;;;;;48.85;29.88;;;;;;;4.16;100.00;98554.88;4935898;29;20523;-76
2022/03/30 05:51:00;;;;;;;52.00;31.88;;;;;;;4.19;100.00;98553.94;4935972;29;20032;-76
2022/03/30 05:53:25;;;;;;;42.90;26.75;;;;;;;4.36;100.00;98567.00;4935931;29;20082;-76
2022/03/30 05:55:51;;;;;;;47.80;31.00;;;;;;;4.37;100.00;98557.53;4935941;29;20392;-75
2022/03/30 05:58:16;;;;;;;110.00;60.95;;;;;;;4.44;100.00;98557.25;4935776;29;20059;-76
2022/03/30 06:00:43;;;;;;;60.38;34.58;;;;;;;4.54;100.00;98557.72;4935890;29;20126;-76
2022/03/30 06:03:12;;;;;;;90.70;51.25;;;;;;;4.74;100.00;98550.03;4935486;29;20027;-76
2022/03/30 06:05:38;;;;;;;94.68;47.63;;;;;;;5.00;100.00;98567.00;4935971;29;20066;-76
2022/03/30 06:08:04;;;;;;;87.40;46.58;;;;;;;5.14;100.00;98575.91;4934327;29;20445;-76
2022/03/30 06:10:30;;;;;;;74.10;42.75;;;;;;;5.26;100.00;98567.66;4935586;29;20396;-76
2022/03/30 06:12:56;;;;;;;61.85;37.20;;;;;;;5.39;100.00;98548.16;4935681;29;20032;-76
2022/03/30 06:15:22;;;;;;;46.72;26.33;;;;;;;5.58;100.00;98560.28;4935256;29;20051;-76
2022/03/30 06:17:49;;;;;;;39.42;21.73;;;;;;;5.53;98.74;98539.00;4935539;29;20028;-76
2022/03/30 06:20:14;;;;;;;34.10;20.08;;;;;;;5.57;96.49;98543.97;4935498;29;20032;-76
2022/03/30 06:22:43;;;;;;;45.33;23.50;;;;;;;5.68;95.63;98558.97;4935663;29;20528;-76
2022/03/30 06:25:09;;;;;;;49.70;27.13;;;;;;;5.85;95.50;98574.56;4935317;29;20046;-76
2022/03/30 06:27:36;;;;;;;48.35;27.88;;;;;;;6.07;95.16;98571.91;4935477;29;20027;-76
2022/03/30 06:30:07;;;;;;;43.50;24.02;;;;;;;6.32;93.62;98566.44;4935283;29;20031;-76
2022/03/30 06:32:33;;;;;;;34.33;20.35;;;;;;;6.48;92.13;98563.97;4935272;29;20123;-76
2022/03/30 06:34:58;;;;;;;35.65;19.13;;;;;;;6.71;90.60;98573.22;4935441;29;20090;-76
2022/03/30 06:37:24;;;;;;;36.22;20.63;;;;;;;6.64;88.80;98544.22;4935174;29;20058;-76
2022/03/30 06:39:50;;;;;;;32.40;19.60;;;;;;;6.69;87.22;98556.91;4935305;29;20113;-76
2022/03/30 06:42:19;;;;;;;57.13;32.28;;;;;;;6.73;86.98;98572.22;4935092;29;20388;-77
2022/03/30 06:44:45;;;;;;;54.28;25.95;;;;;;;6.67;86.20;98579.47;4935304;29;20115;-76
2022/03/30 06:47:10;;;;;;;73.22;30.17;;;;;;;6.72;86.42;98583.50;4935000;29;20114;-77
2022/03/30 06:49:37;;;;;;;37.50;21.02;;;;;;;6.73;84.78;98577.41;4935221;29;20032;-76
2022/03/30 06:52:05;;;;;;;48.88;22.55;;;;;;;6.65;85.14;98569.16;4935138;29;20039;-76
2022/03/30 06:54:30;;;;;;;78.10;29.70;;;;;;;6.74;84.87;98567.88;4935107;29;20059;-76
2022/03/30 06:56:56;;;;;;;111.00;41.13;;;;;;;6.94;84.94;98577.28;4934930;29;20031;-76
2022/03/30 06:59:21;;;;;;;39.72;19.33;;;;;;;6.96;83.61;98575.47;4934638;29;20035;-76
2022/03/30 07:01:47;;;;;;;33.60;17.13;;;;;;;7.01;82.84;98565.72;4934998;29;20376;-77
2022/03/30 07:04:13;;;;;;;33.72;17.20;;;;;;;7.07;81.92;98555.03;4934788;29;20055;-76
2022/03/30 07:10:14;;;;;;;40.05;18.77;;;;;;;7.07;81.62;98567.97;4934932;29;20032;-76
2022/03/30 07:12:08;;;;;;;62.65;25.38;;;;;;;7.90;80.16;98574.13;4934754;29;20035;-76
2022/03/30 07:14:33;;;;;;;42.13;20.33;;;;;;;8.14;78.50;98552.06;4934892;29;20036;-76
2022/03/30 07:16:59;;;;;;;28.27;16.17;;;;;;;8.53;76.30;98579.38;4934644;29;20480;-76
2022/03/30 07:19:24;;;;;;;39.17;17.77;;;;;;;8.73;74.04;98568.72;4934842;29;20439;-76
2022/03/30 07:21:49;;;;;;;26.23;15.02;;;;;;;8.88;72.30;98579.16;4933463;29;20034;-76
2022/03/30 07:24:15;;;;;;;27.25;13.13;;;;;;;8.86;70.60;98570.63;4934420;29;20484;-76
2022/03/30 07:26:40;;;;;;;32.67;14.18;;;;;;;9.14;69.27;98577.66;4934538;29;20031;-76
2022/03/30 07:29:06;;;;;;;26.58;12.35;;;;;;;9.31;66.17;98576.69;4934478;29;20341;-76
2022/03/30 07:31:31;;;;;;;31.27;15.48;;;;;;;9.75;62.00;98569.69;4934723;29;20527;-75
2022/03/30 07:33:56;;;;;;;39.60;20.70;;;;;;;10.85;59.68;98571.53;4934549;29;20388;-76
2022/03/30 07:36:22;;;;;;;25.27;12.02;;;;;;;11.61;52.90;98563.00;4934015;29;20071;-76
2022/03/30 07:38:47;;;;;;;39.63;22.67;;;;;;;11.62;51.77;98567.28;4934598;29;20055;-76
2022/03/30 07:41:12;;;;;;;33.80;15.98;;;;;;;11.59;51.46;98560.50;4934250;29;20032;-76
2022/03/30 07:43:38;;;;;;;31.42;15.10;;;;;;;12.06;49.76;98582.53;4934963;29;20110;-76
2022/03/30 07:46:03;;;;;;;33.60;17.90;;;;;;;12.18;48.63;98560.78;4934681;29;20038;-76
2022/03/30 07:48:29;;;;;;;19.92;11.45;;;;;;;12.20;48.25;98574.53;4934378;29;20034;-76
2022/03/30 07:50:54;;;;;;;34.35;17.85;;;;;;;12.12;47.29;98566.41;4934420;29;20567;-76
2022/03/30 07:53:20;;;;;;;29.98;12.13;;;;;;;12.13;47.59;98564.63;4934302;29;20028;-75
2022/03/30 07:55:47;;;;;;;27.48;14.77;;;;;;;12.29;47.12;98572.22;4934884;29;20118;-76
2022/03/30 07:58:12;;;;;;;23.77;13.75;;;;;;;11.75;47.11;98568.09;4935049;29;20032;-76
2022/03/30 08:00:37;;;;;;;25.35;12.73;;;;;;;10.96;48.13;98572.53;4938342;29;20102;-76
2022/03/30 08:03:03;;;;;;;27.58;14.02;;;;;;;10.42;50.51;98580.31;4938075;29;20024;-76
2022/03/30 08:05:29;;;;;;;30.42;15.10;;;;;;;10.33;52.25;98575.72;4937892;29;20047;-76
2022/03/30 08:07:55;;;;;;;31.48;17.30;;;;;;;10.40;52.69;98561.34;4938296;29;20028;-76
2022/03/30 08:10:21;;;;;;;37.50;19.15;;;;;;;10.53;53.28;98565.78;4937537;29;20050;-76
2022/03/30 08:12:47;;;;;;;26.75;17.00;;;;;;;10.61;53.20;98556.56;4937809;29;20460;-76
2022/03/30 08:15:13;;;;;;;30.02;15.00;;;;;;;10.96;51.60;98567.31;4937339;29;20488;-77
2022/03/30 08:17:40;;;;;;;27.92;13.95;;;;;;;11.02;49.87;98568.66;4937948;29;20032;-77
2022/03/30 08:20:06;;;;;;;29.35;14.82;;;;;;;10.97;50.34;98563.75;4937843;29;20032;-78
2022/03/30 08:22:33;;;;;;;26.55;13.55;;;;;;;10.72;49.91;98541.06;4937483;29;20105;-78
2022/03/30 08:25:01;;;;;;;27.75;14.38;;;;;;;10.70;50.16;98549.91;4936549;29;20034;-78
2022/03/30 08:27:31;;;;;;;34.25;19.73;;;;;;;10.66;50.06;98551.03;4937515;29;20019;-79
2022/03/30 08:29:58;;;;;;;26.20;14.10;;;;;;;10.78;49.54;98563.28;4937484;29;20414;-79
2022/03/30 08:32:24;;;;;;;27.73;15.07;;;;;;;10.68;47.79;98543.97;4937430;29;20122;-79
2022/03/30 08:34:51;;;;;;;41.42;23.05;;;;;;;10.62;45.92;98545.22;4937595;29;20046;-78
2022/03/30 08:37:17;;;;;;;18.60;9.18;;;;;;;10.52;44.68;98544.13;4937145;29;20032;-77
2022/03/30 08:39:43;;;;;;;12.90;6.05;;;;;;;10.55;44.83;98550.91;4937578;29;20035;-78
2022/03/30 08:42:11;;;;;;;22.85;9.68;;;;;;;10.57;45.03;98562.06;4935962;29;20042;-78
2022/03/30 08:44:37;;;;;;;37.22;18.55;;;;;;;10.41;45.77;98547.44;4937262;29;20076;-77
2022/03/30 08:47:04;;;;;;;39.38;20.00;;;;;;;10.53;45.91;98566.63;4953770;29;20587;-78
2022/03/30 08:49:37;;;;;;;78.25;34.88;;;;;;;10.37;46.05;98555.53;4953568;29;20224;-78
2022/03/30 08:52:05;;;;;;;31.05;14.68;;;;;;;10.20;46.94;98546.97;4953893;29;20039;-78
2022/03/30 08:54:31;;;;;;;45.83;21.35;;;;;;;10.07;47.33;98559.09;4953554;29;20035;-78
2022/03/30 08:56:57;;;;;;;61.08;29.48;;;;;;;10.09;48.22;98554.59;4937656;29;20031;-78
2022/03/30 08:59:24;;;;;;;37.20;14.82;;;;;;;10.06;48.03;98539.19;4953945;29;20055;-78
2022/03/30 09:01:52;;;;;;;19.25;10.05;;;;;;;10.03;48.54;98525.53;4953999;28;20041;-77
2022/03/30 09:04:19;;;;;;;14.15;7.60;;;;;;;10.05;48.81;98549.69;4953438;29;20047;-77
2022/03/30 09:06:49;;;;;;;19.05;9.02;;;;;;;9.88;48.87;98533.34;4953634;29;20519;-77
2022/03/30 09:09:18;;;;;;;23.33;10.23;;;;;;;9.98;49.05;98544.84;4953019;28;20094;-77
2022/03/30 09:11:53;;;;;;;25.25;13.15;;;;;;;10.01;49.28;98543.84;4952900;29;20036;-77
2022/03/30 09:14:20;;;;;;;13.60;6.65;;;;;;;9.98;48.83;98539.66;4953809;29;20431;-76
2022/03/30 09:16:51;;;;;;;25.48;11.77;;;;;;;9.85;49.70;98530.94;4953389;29;20423;-77
2022/03/30 09:19:19;;;;;;;23.67;11.35;;;;;;;9.90;49.94;98536.72;4953296;29;20039;-76
2022/03/30 09:21:55;;;;;;;19.77;9.48;;;;;;;10.06;50.33;98540.94;4953408;29;20082;-76
2022/03/30 09:24:29;;;;;;;19.02;7.53;;;;;;;10.16;49.70;98536.88;4945643;29;20048;-76
2022/03/30 09:26:57;;;;;;;13.70;6.95;;;;;;;10.20;49.53;98520.97;4936540;29;20106;-76
2022/03/30 09:29:25;;;;;;;17.45;8.52;;;;;;;10.30;49.71;98533.41;4936242;29;20043;-76
2022/03/30 09:31:52;;;;;;;17.88;9.73;;;;;;;10.31;48.78;98535.91;4936409;29;20469;-76
2022/03/30 09:34:19;;;;;;;19.42;8.85;;;;;;;10.21;49.50;98527.00;4936302;29;20496;-76
2022/03/30 09:36:45;;;;;;;17.67;8.73;;;;;;;10.22;49.09;98526.88;4936437;29;20032;-76
2022/03/30 09:39:35;;;;;;;18.15;10.25;;;;;;;10.33;49.72;98536.66;4936364;29;20027;-76
2022/03/30 09:42:04;;;;;;;21.90;7.77;;;;;;;10.36;49.52;98513.03;4934960;29;20087;-76
2022/03/30 09:44:30;;;;;;;15.27;8.10;;;;;;;10.48;49.46;98517.44;4936487;29;20283;-77
2022/03/30 09:47:05;;;;;;;13.98;8.80;;;;;;;10.40;49.20;98514.50;4936359;29;20034;-76
2022/03/30 09:49:36;;;;;;;20.20;9.57;;;;;;;10.38;49.11;98507.75;4935934;29;20115;-75
2022/03/30 09:52:09;;;;;;;16.45;9.27;;;;;;;10.40;49.36;98493.69;4935470;29;20111;-76
2022/03/30 09:54:40;;;;;;;15.73;8.23;;;;;;;10.73;49.28;98505.44;4935446;29;20086;-77
2022/03/30 09:57:17;;;;;;;21.73;10.25;;;;;;;10.88;49.23;98504.44;4936024;29;20119;-77
2022/03/30 09:59:56;;;;;;;18.88;8.65;;;;;;;10.97;48.15;98506.44;4935966;29;20043;-77
2022/03/30 10:02:21;;;;;;;15.82;9.10;;;;;;;11.04;47.81;98491.25;4935626;29;20027;-77
2022/03/30 10:04:47;;;;;;;19.45;9.25;;;;;;;11.05;47.56;98497.28;4935949;29;20030;-76
2022/03/30 10:07:13;;;;;;;20.75;9.82;;;;;;;11.06;47.99;98505.00;4935698;29;20118;-77
2022/03/30 10:09:40;;;;;;;17.13;9.40;;;;;;;11.17;48.28;98497.31;4935464;29;20392;-77
2022/03/30 10:12:07;;;;;;;15.45;9.52;;;;;;;11.29;47.28;98479.16;4935911;29;20035;-77
2022/03/30 10:14:34;;;;;;;17.13;8.73;;;;;;;11.53;47.40;98492.28;4935446;29;20039;-77
2022/03/30 10:17:00;;;;;;;24.27;10.60;;;;;;;11.54;47.06;98491.34;4935503;29;20123;-77
2022/03/30 10:19:25;;;;;;;17.80;10.25;;;;;;;11.49;47.16;98476.84;4935196;29;20031;-77
2022/03/30 10:22:02;;;;;;;21.60;10.05;;;;;;;11.68;46.73;98492.06;4935490;28;20475;-76
2022/03/30 10:24:50;;;;;;;17.23;9.40;;;;;;;11.83;47.05;98484.13;4935507;29;20103;-76
2022/03/30 10:27:45;;;;;;;18.20;9.57;;;;;;;12.12;47.41;98448.13;4935599;29;20028;-77
2022/03/30 10:30:12;;;;;;;21.60;10.27;;;;;;;12.32;46.32;98471.03;4935545;29;20391;-78
2022/03/30 10:32:39;;;;;;;25.30;11.23;;;;;;;12.41;46.33;98453.84;4966083;28;20046;-78
2022/03/30 10:35:14;;;;;;;17.35;10.07;;;;;;;12.54;45.93;98467.69;4935350;29;20098;-78
2022/03/30 10:37:43;;;;;;;18.42;10.43;;;;;;;12.48;45.58;98445.47;4935103;29;20135;-78
2022/03/30 10:40:08;;;;;;;18.38;10.52;;;;;;;12.68;45.43;98464.03;4935242;29;20032;-78
2022/03/30 10:42:46;;;;;;;20.73;11.32;;;;;;;12.83;45.29;98462.91;4934885;29;20035;-78
2022/03/30 10:45:26;;;;;;;18.17;10.68;;;;;;;12.85;45.08;98463.66;4935303;29;20392;-77
2022/03/30 10:48:09;;;;;;;21.50;10.55;;;;;;;12.59;45.33;98451.66;4971028;28;20039;-78
2022/03/30 10:50:58;;;;;;;16.88;10.88;;;;;;;12.52;45.33;98437.41;4970861;28;20026;-78
2022/03/30 10:53:33;;;;;;;20.00;10.32;;;;;;;12.55;45.64;98453.66;4912159;29;20052;-78
2022/03/30 10:56:07;;;;;;;14.98;9.52;;;;;;;12.82;46.27;98449.97;4900758;29;20555;-78
2022/03/30 10:58:34;;;;;;;19.80;10.60;;;;;;;12.96;45.65;98444.53;4894430;29;20713;-77
2022/03/30 11:01:27;;;;;;;22.50;11.50;;;;;;;12.91;44.85;98447.50;4894606;29;20044;-78
2022/03/30 11:03:57;;;;;;;20.48;10.88;;;;;;;12.80;45.26;98449.25;4893144;29;20520;-77
2022/03/30 11:06:22;;;;;;;18.52;10.55;;;;;;;12.53;44.50;98432.06;4913105;29;20040;-77
2022/03/30 11:08:55;;;;;;;18.92;9.63;;;;;;;12.26;45.02;98442.75;4913348;29;20047;-77
2022/03/30 11:11:42;;;;;;;22.80;10.48;;;;;;;12.11;46.21;98438.66;4913188;29;20151;-77
2022/03/30 11:14:26;;;;;;;19.13;10.48;;;;;;;12.16;45.59;98444.34;4913359;29;20178;-78
2022/03/30 11:16:56;;;;;;;19.13;11.30;;;;;;;12.08;46.00;98434.47;4907216;29;20052;-77
2022/03/30 11:19:29;;;;;;;21.13;10.85;;;;;;;12.19;46.55;98410.22;4899469;29;20190;-76
2022/03/30 11:22:07;;;;;;;22.52;11.02;;;;;;;12.35;45.63;98429.03;4894495;29;20490;-76
2022/03/30 11:24:32;;;;;;;16.88;10.00;;;;;;;12.24;45.35;98418.53;4893806;29;20059;-77